Aviation Digital Data Service (ADDS)

Output produced by METARs form (2340 UTC 25 February 2018)
found at http://www.aviationweather.gov/adds/metars/
 
MSLP 252250Z 26006KT 210V300 9999 FEW023 FEW040CB 30/22 Q1012 A2989 FU TO SE NOSIG
TAF MSLP 252125Z 2600/2624 VRB02KT 9999 SCT060 TX32/2617Z TN21/2609Z 
     FM261200 09004KT CAVOK 
     FM2611800 19007G17KT 9999 SCT030 FEW037CB
       
MSSS 252250Z 17010KT 9999 5000E VCTS FEW020 FEW033CB 26/18 Q1015 A2999
TAF MSSS 2600/2624 19002KT 9999 FEW040 TX30/2618Z TN20/2612Z 
     FM261200 36006KT CAVOK 
     FM261700 19009KT 9999 SCT030 FEW037CB